createdAt,value
2022-09-06T09:03:21.577Z,45.87
2022-09-06T09:04:22.453Z,45.87
2022-09-06T09:05:23.341Z,45.97
2022-09-06T09:06:22.468Z,46.17
2022-09-06T09:07:22.522Z,46.17
2022-09-06T09:08:22.623Z,46.27
2022-09-06T09:09:22.449Z,46.27
2022-09-06T09:10:22.429Z,46.37
2022-09-06T09:11:22.454Z,46.47
2022-09-06T09:12:22.403Z,46.47
2022-09-06T09:13:22.444Z,46.57
2022-09-06T09:14:22.382Z,46.07
2022-09-06T09:15:22.398Z,45.77
2022-09-06T09:16:22.505Z,46.17
2022-09-06T09:17:22.302Z,46.27
2022-09-06T09:18:22.344Z,46.47
2022-09-06T09:19:22.241Z,46.67
2022-09-06T09:20:23.796Z,46.57
2022-09-06T09:21:24.703Z,46.37
2022-09-06T09:22:22.094Z,46.37
2022-09-06T09:23:22.102Z,46.27
2022-09-06T09:24:22.073Z,45.97
2022-09-06T09:25:21.966Z,45.97
2022-09-06T09:26:22.032Z,45.87
2022-09-06T09:27:21.911Z,46.07
2022-09-06T09:28:21.852Z,46.07
2022-09-06T09:29:27.478Z,46.17
2022-09-06T09:31:21.834Z,46.27
2022-09-06T09:32:21.672Z,47.07
2022-09-06T12:21:54.994Z,46.87
2022-09-06T12:22:55.981Z,46.77
2022-09-06T12:23:55.934Z,47.57
2022-09-06T12:24:55.925Z,46.37
2022-09-06T12:25:55.901Z,48.77
2022-09-06T12:26:56.138Z,46.65
2022-09-06T12:27:55.867Z,47.15
2022-09-06T12:28:55.761Z,47.05
2022-09-06T12:29:55.712Z,42.25
2022-09-06T12:30:55.707Z,40.36
2022-09-06T12:31:55.601Z,38.76
2022-09-06T12:32:55.541Z,36.16
2022-09-06T12:33:55.473Z,36.58
2022-09-06T12:36:55.240Z,36.88
2022-09-06T12:37:55.157Z,36.28
2022-09-06T12:38:55.090Z,35.18
2022-09-06T12:39:55.122Z,39.59
2022-09-06T12:40:54.926Z,37.59
2022-09-06T12:41:54.836Z,38.09
2022-09-06T12:42:54.743Z,37.99
2022-09-06T12:43:54.671Z,37.90
2022-09-06T12:44:54.602Z,39.50
2022-09-06T12:45:54.505Z,37.61
2022-09-06T12:46:54.442Z,36.81
2022-09-06T12:47:54.341Z,37.11
2022-09-06T12:48:54.262Z,38.03
2022-09-06T12:49:54.162Z,40.03
2022-09-06T12:50:54.098Z,39.23
2022-09-06T12:51:54.041Z,39.93
2022-09-06T12:52:53.908Z,39.23
2022-09-06T12:53:53.806Z,40.13
2022-09-06T12:54:53.724Z,39.55
2022-09-06T12:55:53.682Z,39.45
2022-09-06T12:56:53.580Z,39.25
2022-09-06T12:57:53.524Z,40.95
2022-09-06T12:58:53.425Z,41.15
2022-09-06T12:59:53.319Z,39.95
